Time;durP1;ratioP1;P1;durP2;ratioP2;P2;SDS_P1;SDS_P2;PMS_P1;PMS_P2;Temp;Humidity;BMP_temperature;BMP_pressure;BME280_temperature;BME280_humidity;BME280_pressure;Samples;Min_cycle;Max_cycle;Signal;HPM_P1;HPM_P2
2023/01/18 00:00:45;;;;;;;13.70;11.05;;;4.00;99.90;;;;;;5049601;28;20185;-69
2023/01/18 00:03:12;;;;;;;19.05;11.65;;;3.80;99.90;;;;;;5048586;28;20181;-69
2023/01/18 00:05:39;;;;;;;17.08;11.85;;;3.80;99.90;;;;;;5051436;28;20186;-69
2023/01/18 00:08:07;;;;;;;18.63;11.75;;;3.70;99.90;;;;;;5049383;28;20188;-69
2023/01/18 00:10:32;;;;;;;15.35;12.15;;;3.70;99.90;;;;;;5049818;28;20273;-69
2023/01/18 00:12:58;;;;;;;15.37;12.03;;;3.40;99.90;;;;;;5031554;28;20264;-69
2023/01/18 00:15:24;;;;;;;17.23;11.70;;;3.30;99.90;;;;;;5050417;28;20188;-69
2023/01/18 00:17:52;;;;;;;16.53;12.20;;;3.30;99.90;;;;;;5049598;28;20244;-79
2023/01/18 00:20:21;;;;;;;19.70;12.35;;;3.30;99.90;;;;;;5049447;28;20189;-69
2023/01/18 00:22:47;;;;;;;15.60;12.00;;;3.20;99.90;;;;;;5049512;28;20689;-69
2023/01/18 00:25:13;;;;;;;18.77;12.30;;;3.20;99.90;;;;;;5053920;28;20225;-69
2023/01/18 00:27:43;;;;;;;18.63;13.07;;;3.20;99.90;;;;;;5054351;28;20188;-69
2023/01/18 00:30:13;;;;;;;12.85;10.73;;;3.30;99.90;;;;;;5032744;28;20444;-69
2023/01/18 00:32:39;;;;;;;15.13;11.40;;;3.30;99.90;;;;;;5046194;28;20228;-69
2023/01/18 00:35:06;;;;;;;15.23;10.90;;;3.50;99.90;;;;;;5052876;28;20208;-69
2023/01/18 00:37:35;;;;;;;15.30;11.00;;;3.40;99.90;;;;;;5052402;28;20192;-69
2023/01/18 00:40:03;;;;;;;13.90;11.20;;;3.30;99.90;;;;;;5053965;28;20246;-69
2023/01/18 00:45:12;;;;;;;15.57;11.85;;;3.30;99.90;;;;;;5053253;28;20551;-69
2023/01/18 00:47:38;;;;;;;13.87;10.83;;;3.30;99.90;;;;;;5052611;28;20182;-69
2023/01/18 00:50:04;;;;;;;16.63;11.43;;;3.30;99.90;;;;;;5054006;28;20185;-69
2023/01/18 00:52:32;;;;;;;15.38;11.10;;;3.30;99.90;;;;;;5054403;28;20255;-69
2023/01/18 00:54:58;;;;;;;16.20;11.35;;;3.40;99.90;;;;;;5052749;28;20177;-69
2023/01/18 00:57:24;;;;;;;17.30;11.40;;;3.40;99.90;;;;;;5052829;28;20585;-68
2023/01/18 00:59:49;;;;;;;15.57;11.23;;;3.40;99.90;;;;;;5053933;28;20739;-69
2023/01/18 01:02:15;;;;;;;15.83;12.30;;;3.50;99.90;;;;;;5049297;28;20432;-70
2023/01/18 01:07:25;;;;;;;14.43;11.45;;;3.50;99.90;;;;;;5050454;28;20189;-69
2023/01/18 01:09:55;;;;;;;14.70;11.23;;;3.50;99.90;;;;;;5052177;28;20595;-69
2023/01/18 01:26:07;;;;;;;16.05;11.57;;;3.60;99.90;;;;;;5052934;28;20235;-69
2023/01/18 01:28:35;;;;;;;16.00;11.95;;;3.50;99.90;;;;;;5045138;28;20201;-69
2023/01/18 01:31:02;;;;;;;14.50;11.45;;;3.40;99.90;;;;;;5044281;28;20197;-69
2023/01/18 01:33:29;;;;;;;13.82;12.32;;;3.30;99.90;;;;;;5051686;28;20185;-69
2023/01/18 01:36:09;;;;;;;19.38;12.57;;;3.30;99.90;;;;;;5049758;28;20629;-71
2023/01/18 01:38:36;;;;;;;13.43;11.20;;;3.30;99.90;;;;;;5050139;28;20343;-69
2023/01/18 01:41:05;;;;;;;14.82;10.45;;;3.30;99.90;;;;;;5050526;28;20229;-69
2023/01/18 01:43:41;;;;;;;17.05;10.85;;;3.30;99.90;;;;;;5052372;28;20186;-68
2023/01/18 01:46:29;;;;;;;14.88;10.68;;;3.30;99.90;;;;;;5039111;28;20540;-71
2023/01/18 01:49:07;;;;;;;14.88;11.93;;;3.30;99.90;;;;;;5048298;28;20659;-82
2023/01/18 01:51:40;;;;;;;15.20;10.13;;;3.30;99.90;;;;;;5053143;28;20169;-69
2023/01/18 01:54:12;;;;;;;15.50;10.88;;;3.20;99.90;;;;;;5051024;28;20311;-69
2023/01/18 01:56:38;;;;;;;16.13;11.65;;;3.20;99.90;;;;;;5052952;28;20193;-69
2023/01/18 01:59:07;;;;;;;14.48;9.77;;;3.20;99.90;;;;;;5052214;28;20739;-69
2023/01/18 02:01:33;;;;;;;14.98;11.10;;;3.20;99.90;;;;;;5051865;28;20190;-69
2023/01/18 02:04:01;;;;;;;12.63;10.88;;;3.20;99.90;;;;;;5039515;28;20193;-69
2023/01/18 02:06:32;;;;;;;15.15;11.50;;;3.10;99.90;;;;;;5049327;28;20612;-69
2023/01/18 02:09:12;;;;;;;14.93;11.55;;;3.10;99.90;;;;;;5049935;28;20522;-69
2023/01/18 02:11:39;;;;;;;13.77;11.15;;;3.20;99.90;;;;;;5050981;28;20203;-69
2023/01/18 02:14:14;;;;;;;14.23;11.63;;;3.10;99.90;;;;;;5052176;28;20182;-70
2023/01/18 02:16:57;;;;;;;15.15;11.88;;;3.10;99.90;;;;;;5051708;28;20192;-69
2023/01/18 02:20:01;;;;;;;16.85;12.18;;;3.10;99.90;;;;;;5050810;28;20209;-69
2023/01/18 02:22:30;;;;;;;13.95;10.82;;;3.10;99.90;;;;;;5051618;28;20204;-69
2023/01/18 02:25:21;;;;;;;14.68;12.85;;;3.10;99.90;;;;;;5052271;28;20715;-69
2023/01/18 02:28:30;;;;;;;15.80;11.52;;;3.10;99.90;;;;;;5052487;28;20549;-69
2023/01/18 02:31:16;;;;;;;14.57;11.98;;;3.10;99.90;;;;;;5030343;28;20273;-69
2023/01/18 02:33:51;;;;;;;14.75;10.98;;;3.10;99.90;;;;;;5050367;28;20196;-69
2023/01/18 02:36:30;;;;;;;14.50;11.50;;;3.10;99.90;;;;;;5047088;28;20188;-69
2023/01/18 02:39:04;;;;;;;13.40;11.00;;;3.10;99.90;;;;;;5051969;28;20215;-69
2023/01/18 02:47:25;;;;;;;16.58;11.27;;;3.00;99.90;;;;;;5051500;28;20192;-69
2023/01/18 02:49:50;;;;;;;15.82;11.90;;;3.00;99.90;;;;;;5052338;28;20191;-69
2023/01/18 02:52:50;;;;;;;15.90;12.00;;;3.40;99.90;;;;;;5051152;28;20545;-68
2023/01/18 02:55:30;;;;;;;16.45;11.98;;;3.00;99.90;;;;;;5051233;28;20535;-68
2023/01/18 02:58:06;;;;;;;15.15;10.95;;;3.10;99.90;;;;;;5052217;28;20224;-68
2023/01/18 03:00:35;;;;;;;15.60;10.80;;;2.90;99.90;;;;;;5050830;28;20199;-69
2023/01/18 03:03:01;;;;;;;18.08;11.40;;;3.00;99.90;;;;;;5051109;28;20218;-78
2023/01/18 03:05:28;;;;;;;13.07;10.73;;;3.00;99.90;;;;;;5038658;28;20180;-69
2023/01/18 03:08:13;;;;;;;14.57;13.00;;;3.00;99.90;;;;;;5050716;28;20492;-69
2023/01/18 03:10:53;;;;;;;14.75;12.23;;;2.90;99.90;;;;;;5048308;28;20256;-68
2023/01/18 03:13:40;;;;;;;11.77;10.20;;;2.90;99.90;;;;;;5036662;28;20541;-68
2023/01/18 03:16:11;;;;;;;14.93;11.90;;;3.00;99.90;;;;;;5048614;28;20196;-69
2023/01/18 03:19:00;;;;;;;15.15;11.80;;;3.00;99.90;;;;;;5049533;28;20254;-69
2023/01/18 03:21:36;;;;;;;13.82;10.45;;;3.00;99.90;;;;;;5041445;28;20168;-68
2023/01/18 03:24:06;;;;;;;15.82;11.63;;;3.00;99.90;;;;;;5051209;28;20192;-69
2023/01/18 03:26:37;;;;;;;18.23;10.93;;;2.90;99.90;;;;;;5051639;28;20625;-76
2023/01/18 03:34:37;;;;;;;12.30;10.82;;;2.70;99.90;;;;;;5051669;28;20275;-68
2023/01/18 03:37:10;;;;;;;14.70;10.77;;;2.80;99.90;;;;;;5048765;28;20180;-69
2023/01/18 03:39:41;;;;;;;13.68;11.30;;;2.90;99.90;;;;;;5051548;28;20219;-68
2023/01/18 03:42:15;;;;;;;19.30;11.18;;;2.90;99.90;;;;;;5051520;28;20309;-68
2023/01/18 03:44:49;;;;;;;14.70;10.85;;;2.80;99.90;;;;;;5051431;28;20587;-68
2023/01/18 03:47:15;;;;;;;14.90;11.00;;;2.80;99.90;;;;;;5041913;28;20545;-68
2023/01/18 03:49:41;;;;;;;15.10;11.30;;;2.80;99.90;;;;;;5044138;28;20230;-69
2023/01/18 03:52:28;;;;;;;16.33;11.10;;;2.80;99.90;;;;;;5050340;28;20207;-68
2023/01/18 03:55:19;;;;;;;12.75;10.93;;;2.80;99.90;;;;;;5051462;28;20522;-68
2023/01/18 03:58:02;;;;;;;14.52;10.10;;;2.80;99.90;;;;;;5046679;28;20200;-69
2023/01/18 04:00:30;;;;;;;14.20;10.88;;;2.80;99.90;;;;;;5055522;28;20189;-69
2023/01/18 04:02:56;;;;;;;17.17;11.00;;;2.80;99.90;;;;;;5055434;28;20181;-69
2023/01/18 04:05:24;;;;;;;16.45;12.23;;;2.80;99.90;;;;;;5053608;28;20267;-69
2023/01/18 04:07:50;;;;;;;17.50;11.00;;;2.80;99.90;;;;;;5054434;28;20231;-73
2023/01/18 04:10:17;;;;;;;17.53;12.30;;;2.80;99.90;;;;;;5054558;28;20212;-69
2023/01/18 04:12:42;;;;;;;15.27;10.88;;;2.90;99.90;;;;;;5053509;28;20480;-69
2023/01/18 04:15:09;;;;;;;16.27;11.37;;;2.90;99.90;;;;;;5054961;28;20185;-69
2023/01/18 04:17:34;;;;;;;16.75;10.77;;;2.90;99.90;;;;;;5052653;28;20640;-69
2023/01/18 04:20:00;;;;;;;14.63;10.53;;;2.90;99.90;;;;;;5054318;28;20196;-69
2023/01/18 04:22:26;;;;;;;13.47;10.80;;;2.90;99.90;;;;;;5053737;28;20431;-68
2023/01/18 04:24:52;;;;;;;14.80;11.00;;;3.00;99.90;;;;;;5055559;28;20476;-68
2023/01/18 04:27:18;;;;;;;14.30;10.90;;;3.00;99.90;;;;;;5053627;28;20169;-69
2023/01/18 04:29:44;;;;;;;15.83;11.50;;;3.00;99.90;;;;;;5055291;28;20180;-69
2023/01/18 04:32:09;;;;;;;15.80;12.90;;;3.00;99.90;;;;;;5053560;28;20640;-69
2023/01/18 04:34:35;;;;;;;13.70;10.70;;;3.00;99.90;;;;;;5054842;28;20173;-69
2023/01/18 04:37:01;;;;;;;13.33;11.67;;;2.90;99.90;;;;;;5054144;28;20179;-69
2023/01/18 04:39:26;;;;;;;17.30;12.27;;;3.00;99.90;;;;;;5053439;28;20216;-69
2023/01/18 04:41:52;;;;;;;15.93;11.73;;;3.00;99.90;;;;;;5054043;28;20234;-69
2023/01/18 04:44:18;;;;;;;15.40;12.00;;;3.00;99.90;;;;;;5054958;28;20267;-69
2023/01/18 04:46:44;;;;;;;16.20;11.87;;;3.00;99.90;;;;;;5053290;28;20536;-69
2023/01/18 04:49:14;;;;;;;14.70;13.00;;;3.00;99.90;;;;;;5052999;28;20189;-70
2023/01/18 04:51:40;;;;;;;12.82;11.10;;;3.00;99.90;;;;;;5052878;28;20324;-70
2023/01/18 04:54:07;;;;;;;17.05;14.18;;;2.90;99.90;;;;;;5051994;28;20254;-81
2023/01/18 04:56:33;;;;;;;17.67;12.88;;;2.90;99.90;;;;;;5051048;28;20273;-69
2023/01/18 04:58:59;;;;;;;21.08;13.32;;;2.90;99.90;;;;;;5034972;28;20211;-70
2023/01/18 05:01:25;;;;;;;16.30;13.25;;;2.90;99.90;;;;;;5053793;28;20185;-70
2023/01/18 05:03:54;;;;;;;14.17;10.30;;;2.90;99.90;;;;;;5054869;28;20171;-70
2023/01/18 05:06:20;;;;;;;14.25;10.00;;;2.90;99.90;;;;;;5048935;28;20187;-69
2023/01/18 05:08:46;;;;;;;15.82;11.70;;;2.90;99.90;;;;;;5050788;28;20193;-70
2023/01/18 05:11:17;;;;;;;17.50;12.07;;;2.90;99.90;;;;;;5053411;28;20733;-70
2023/01/18 05:13:43;;;;;;;16.05;11.55;;;2.80;99.90;;;;;;5051768;28;20242;-69
2023/01/18 05:16:15;;;;;;;15.63;12.73;;;2.80;99.90;;;;;;5050220;28;20605;-70
2023/01/18 05:18:41;;;;;;;18.98;13.10;;;2.80;99.90;;;;;;5054042;28;20212;-69
2023/01/18 05:21:07;;;;;;;14.32;11.77;;;2.80;99.90;;;;;;5052354;28;20188;-69
2023/01/18 05:23:33;;;;;;;17.73;12.60;;;2.80;99.90;;;;;;5054583;28;20178;-69
2023/01/18 05:25:58;;;;;;;14.03;12.30;;;2.90;99.90;;;;;;5054791;28;20522;-69
2023/01/18 05:28:26;;;;;;;17.60;12.87;;;2.90;99.90;;;;;;5051986;28;20212;-69
2023/01/18 05:30:53;;;;;;;14.98;11.50;;;2.90;99.90;;;;;;5052457;28;20547;-69
2023/01/18 05:33:21;;;;;;;14.48;12.18;;;2.90;99.90;;;;;;5054074;28;20204;-70
2023/01/18 05:35:52;;;;;;;15.38;10.93;;;2.80;99.90;;;;;;5034525;28;20178;-70
2023/01/18 05:38:18;;;;;;;15.43;13.30;;;2.70;99.90;;;;;;5053683;28;20216;-70
2023/01/18 05:40:47;;;;;;;15.35;12.20;;;2.70;99.90;;;;;;5054074;28;20292;-69
2023/01/18 05:43:13;;;;;;;16.88;10.98;;;2.70;99.90;;;;;;5053203;28;20238;-70
2023/01/18 05:45:41;;;;;;;18.90;13.07;;;2.70;99.90;;;;;;5052171;28;20524;-69
2023/01/18 05:48:07;;;;;;;17.00;11.82;;;2.70;99.90;;;;;;5054161;28;20411;-69
2023/01/18 05:50:33;;;;;;;15.60;12.30;;;2.70;99.90;;;;;;5049601;28;20249;-70
2023/01/18 05:52:59;;;;;;;17.55;11.90;;;2.70;99.90;;;;;;5053017;28;20785;-71
2023/01/18 05:55:26;;;;;;;17.38;12.85;;;2.70;99.90;;;;;;5050600;28;20657;-69
2023/01/18 05:57:52;;;;;;;17.55;13.20;;;2.70;99.90;;;;;;5052953;28;20189;-69
2023/01/18 06:00:18;;;;;;;19.13;12.07;;;2.80;99.90;;;;;;5050805;28;20527;-69
2023/01/18 06:02:44;;;;;;;16.98;11.50;;;2.70;99.90;;;;;;5053651;28;20413;-75
2023/01/18 06:05:10;;;;;;;14.33;12.70;;;2.70;99.90;;;;;;5052585;28;20188;-77
2023/01/18 06:07:36;;;;;;;16.77;12.75;;;2.70;99.90;;;;;;5052540;28;20172;-70
2023/01/18 06:10:03;;;;;;;13.95;10.60;;;2.70;99.90;;;;;;5053327;28;20185;-69
2023/01/18 06:12:29;;;;;;;15.90;11.63;;;2.70;99.90;;;;;;5051694;28;20676;-69
2023/01/18 06:14:55;;;;;;;16.97;12.20;;;2.70;99.90;;;;;;5053232;28;20179;-70
2023/01/18 06:17:21;;;;;;;14.67;12.47;;;2.70;99.90;;;;;;5052595;28;20640;-72
2023/01/18 06:19:47;;;;;;;13.82;11.45;;;2.60;99.90;;;;;;5051817;28;20213;-71
2023/01/18 06:22:12;;;;;;;18.80;13.63;;;2.60;99.90;;;;;;5052072;28;20754;-72
2023/01/18 06:24:38;;;;;;;19.23;11.33;;;2.60;99.90;;;;;;5052003;28;20180;-72
2023/01/18 06:27:04;;;;;;;16.43;10.93;;;2.60;99.90;;;;;;5050383;28;20426;-72
2023/01/18 06:29:30;;;;;;;19.63;13.50;;;2.60;99.90;;;;;;5051841;28;20181;-72
2023/01/18 06:31:55;;;;;;;21.23;12.83;;;2.70;99.90;;;;;;5051300;28;20193;-71
2023/01/18 06:34:21;;;;;;;13.60;11.03;;;2.60;99.90;;;;;;5050447;28;20180;-72
2023/01/18 06:36:47;;;;;;;17.07;13.40;;;2.70;99.90;;;;;;5050963;28;20422;-72
2023/01/18 06:39:12;;;;;;;15.47;13.33;;;2.70;99.90;;;;;;5052490;28;20220;-75
2023/01/18 06:41:38;;;;;;;17.00;12.60;;;2.60;99.90;;;;;;5052792;28;20224;-72
2023/01/18 06:44:04;;;;;;;18.70;14.27;;;2.60;99.90;;;;;;5052750;28;20176;-72
2023/01/18 06:46:31;;;;;;;16.02;12.02;;;2.70;99.90;;;;;;5052047;28;20171;-70
2023/01/18 06:48:56;;;;;;;14.68;11.65;;;2.60;99.90;;;;;;5052283;28;20176;-72
2023/01/18 06:51:22;;;;;;;18.33;13.17;;;2.60;99.90;;;;;;5051551;28;20717;-72
2023/01/18 06:53:48;;;;;;;19.23;12.63;;;2.60;99.90;;;;;;5051587;28;20423;-73
2023/01/18 06:56:15;;;;;;;16.95;14.20;;;2.60;99.90;;;;;;5051989;28;20188;-73
2023/01/18 06:58:41;;;;;;;19.02;12.40;;;2.60;99.90;;;;;;5051545;28;20207;-70
2023/01/18 07:01:07;;;;;;;17.10;13.67;;;2.60;99.90;;;;;;5051902;28;20313;-70
2023/01/18 07:03:32;;;;;;;20.33;11.73;;;2.60;99.90;;;;;;5049612;28;20436;-72
2023/01/18 07:06:01;;;;;;;16.30;13.67;;;2.60;99.90;;;;;;5052057;28;20789;-74
2023/01/18 07:08:32;;;;;;;22.52;13.70;;;2.60;99.90;;;;;;5061873;28;20188;-74
2023/01/18 07:11:02;;;;;;;18.58;12.43;;;2.60;99.90;;;;;;5050973;28;20188;-75
2023/01/18 07:13:28;;;;;;;17.50;14.93;;;2.60;99.90;;;;;;5050959;28;20310;-72
2023/01/18 07:15:57;;;;;;;20.30;13.67;;;2.60;99.90;;;;;;5052578;28;20213;-72
2023/01/18 07:18:23;;;;;;;18.73;13.00;;;2.50;99.90;;;;;;5051732;28;20207;-72
2023/01/18 07:21:00;;;;;;;18.58;14.70;;;2.60;99.90;;;;;;5052493;28;20178;-72
2023/01/18 07:23:27;;;;;;;16.83;12.38;;;2.60;99.90;;;;;;5049690;28;20180;-73
2023/01/18 07:26:05;;;;;;;17.50;13.27;;;2.60;99.90;;;;;;5051481;28;20542;-72
2023/01/18 07:28:32;;;;;;;16.08;13.10;;;2.60;99.90;;;;;;5050720;28;20327;-70
2023/01/18 07:30:58;;;;;;;16.55;13.13;;;2.70;99.90;;;;;;5052409;28;20176;-71
2023/01/18 07:33:24;;;;;;;17.40;13.38;;;2.60;99.90;;;;;;5054753;28;20183;-71
2023/01/18 07:35:54;;;;;;;18.30;13.77;;;2.60;99.90;;;;;;5053726;28;20184;-72
2023/01/18 07:38:21;;;;;;;20.15;15.43;;;2.60;99.90;;;;;;5051372;28;20502;-72
2023/01/18 07:40:49;;;;;;;20.15;12.90;;;2.60;99.90;;;;;;5052574;28;20225;-71
2023/01/18 07:43:16;;;;;;;17.98;12.73;;;2.60;99.90;;;;;;5040833;28;20654;-71
2023/01/18 07:45:43;;;;;;;16.17;13.52;;;2.60;99.90;;;;;;5041856;28;20195;-73
2023/01/18 07:48:09;;;;;;;25.42;15.98;;;2.60;99.90;;;;;;5054751;28;20185;-72
2023/01/18 07:50:35;;;;;;;17.50;13.07;;;2.60;99.90;;;;;;5055284;28;20175;-72
2023/01/18 07:53:03;;;;;;;19.17;13.37;;;2.60;99.90;;;;;;5055649;28;20416;-72
2023/01/18 07:55:33;;;;;;;18.80;14.23;;;2.70;99.90;;;;;;5054169;28;20416;-70
2023/01/18 07:57:59;;;;;;;19.13;13.50;;;2.70;99.90;;;;;;5059405;28;20181;-69
2023/01/18 08:00:26;;;;;;;18.80;14.23;;;2.80;99.90;;;;;;5055170;28;20211;-72
2023/01/18 08:02:53;;;;;;;19.73;13.55;;;2.90;99.90;;;;;;5055901;28;20277;-69
2023/01/18 08:05:22;;;;;;;23.08;15.88;;;3.00;99.90;;;;;;5055858;28;20242;-70
2023/01/18 08:07:49;;;;;;;26.13;16.13;;;3.10;99.90;;;;;;5056965;28;20265;-71
2023/01/18 08:10:16;;;;;;;21.10;15.55;;;3.10;99.90;;;;;;5058559;28;20185;-69
2023/01/18 08:12:42;;;;;;;23.65;15.57;;;3.10;99.90;;;;;;5055083;28;20241;-69
2023/01/18 08:15:08;;;;;;;21.50;13.90;;;3.10;99.90;;;;;;5054266;28;20621;-69
2023/01/18 08:17:34;;;;;;;23.83;17.63;;;3.10;99.90;;;;;;5054969;28;20416;-69
2023/01/18 08:20:00;;;;;;;20.02;13.95;;;3.10;99.90;;;;;;5055454;28;20203;-69
2023/01/18 08:22:26;;;;;;;19.47;13.70;;;3.10;99.90;;;;;;5054947;28;20192;-69
2023/01/18 08:24:52;;;;;;;20.53;15.20;;;3.10;99.90;;;;;;5054315;28;20629;-69
2023/01/18 08:27:17;;;;;;;22.03;15.07;;;3.10;99.90;;;;;;5054994;28;20188;-73
2023/01/18 08:29:45;;;;;;;20.60;13.53;;;3.10;99.90;;;;;;5053013;28;20435;-70
2023/01/18 08:32:11;;;;;;;22.10;16.00;;;3.10;99.90;;;;;;5055550;28;20415;-67
2023/01/18 08:34:37;;;;;;;19.77;14.82;;;3.20;99.90;;;;;;5054253;28;20183;-67
2023/01/18 08:37:03;;;;;;;25.97;16.40;;;3.10;99.90;;;;;;5055243;28;20233;-67
2023/01/18 08:39:28;;;;;;;19.43;15.00;;;3.10;99.90;;;;;;5054172;28;20200;-67
2023/01/18 08:41:54;;;;;;;18.10;14.80;;;3.10;99.90;;;;;;5055036;28;20228;-68
2023/01/18 08:44:20;;;;;;;20.67;15.37;;;3.10;99.90;;;;;;5054776;28;20672;-76
2023/01/18 08:46:45;;;;;;;21.00;16.17;;;3.10;99.90;;;;;;5058439;28;20535;-71
2023/01/18 08:49:11;;;;;;;21.20;15.50;;;3.10;99.90;;;;;;5052904;28;20531;-68
2023/01/18 08:51:37;;;;;;;24.93;17.10;;;3.10;99.90;;;;;;5068011;28;20185;-68
2023/01/18 08:54:05;;;;;;;22.70;16.42;;;3.20;99.90;;;;;;5075212;28;20180;-68
2023/01/18 08:56:31;;;;;;;23.27;14.65;;;3.20;99.90;;;;;;5057130;28;20192;-72
2023/01/18 08:58:57;;;;;;;22.48;15.20;;;3.20;99.90;;;;;;5052826;28;20216;-68
2023/01/18 09:01:23;;;;;;;18.00;14.05;;;3.40;99.90;;;;;;5053573;28;20628;-68
2023/01/18 09:03:54;;;;;;;17.65;13.57;;;3.20;99.90;;;;;;5053373;28;20181;-69
2023/01/18 09:06:20;;;;;;;22.67;15.77;;;3.20;99.90;;;;;;5052754;28;20176;-69
2023/01/18 09:08:47;;;;;;;19.02;15.95;;;3.30;99.90;;;;;;5051932;28;20181;-69
2023/01/18 09:11:13;;;;;;;18.42;13.80;;;3.30;99.90;;;;;;5052393;28;20196;-68
2023/01/18 09:13:40;;;;;;;19.80;14.65;;;3.40;99.90;;;;;;5051622;28;20178;-69
2023/01/18 09:16:08;;;;;;;21.10;14.77;;;3.50;99.90;;;;;;5037665;28;20521;-68
2023/01/18 09:18:35;;;;;;;22.60;15.10;;;3.60;99.90;;;;;;5051470;28;20209;-69
2023/01/18 09:21:09;;;;;;;20.90;16.08;;;3.70;99.90;;;;;;5053267;28;20186;-69
2023/01/18 09:23:36;;;;;;;21.42;15.15;;;3.80;99.90;;;;;;5054403;28;20175;-68
2023/01/18 09:26:08;;;;;;;22.88;14.07;;;3.70;99.90;;;;;;5054541;28;20178;-68
2023/01/18 09:28:34;;;;;;;24.90;15.18;;;3.80;99.90;;;;;;5054040;28;20541;-69
2023/01/18 09:31:07;;;;;;;21.17;14.70;;;4.00;99.90;;;;;;5054401;28;20265;-69
2023/01/18 09:33:34;;;;;;;21.27;15.18;;;4.20;99.90;;;;;;5053991;28;20429;-69
2023/01/18 09:36:06;;;;;;;23.52;14.95;;;4.40;99.90;;;;;;5054146;28;20170;-69
2023/01/18 09:38:33;;;;;;;18.40;16.38;;;4.60;99.90;;;;;;5053575;28;20681;-69
2023/01/18 09:40:59;;;;;;;21.10;15.45;;;4.70;99.90;;;;;;5054232;28;20607;-69
2023/01/18 09:43:33;;;;;;;22.17;15.70;;;4.80;99.90;;;;;;5052778;28;20213;-69
2023/01/18 09:46:00;;;;;;;18.90;15.18;;;5.10;99.90;;;;;;5054472;28;20173;-69
2023/01/18 09:48:36;;;;;;;21.35;15.60;;;5.20;99.90;;;;;;5053427;28;20181;-69
2023/01/18 09:51:19;;;;;;;24.38;15.90;;;5.40;99.90;;;;;;5054116;28;20180;-68
2023/01/18 09:54:22;;;;;;;22.40;15.50;;;5.50;99.90;;;;;;5052045;28;20186;-70
2023/01/18 09:57:16;;;;;;;19.85;15.20;;;5.60;99.90;;;;;;5051852;28;20256;-69
2023/01/18 09:59:57;;;;;;;22.90;16.13;;;5.70;99.90;;;;;;5053246;28;20198;-69
2023/01/18 10:02:34;;;;;;;18.70;16.45;;;5.70;99.80;;;;;;5053805;28;20176;-69
2023/01/18 10:05:05;;;;;;;22.73;17.17;;;5.60;99.40;;;;;;5053759;28;20208;-69
2023/01/18 10:07:34;;;;;;;19.17;15.60;;;5.60;99.80;;;;;;5053413;28;20162;-69
2023/01/18 10:10:02;;;;;;;24.10;17.23;;;5.60;99.90;;;;;;5052344;28;20638;-69
2023/01/18 10:12:46;;;;;;;21.35;15.73;;;5.60;99.90;;;;;;5052461;28;20178;-69
2023/01/18 10:15:25;;;;;;;24.15;16.23;;;5.70;99.90;;;;;;5053323;28;20176;-69
2023/01/18 10:17:55;;;;;;;22.60;17.00;;;5.80;99.90;;;;;;5053864;28;20197;-69
2023/01/18 10:20:44;;;;;;;24.63;17.92;;;5.90;99.90;;;;;;5053454;28;20542;-69
2023/01/18 10:23:23;;;;;;;21.00;16.48;;;5.90;99.90;;;;;;5053439;28;20215;-69
2023/01/18 10:25:54;;;;;;;21.77;17.13;;;6.00;99.90;;;;;;5052917;28;20198;-69
2023/01/18 10:28:26;;;;;;;27.23;18.48;;;6.00;99.90;;;;;;5051910;28;20522;-69
2023/01/18 10:31:06;;;;;;;24.50;18.05;;;6.10;99.90;;;;;;5053253;28;20197;-69
2023/01/18 10:33:39;;;;;;;23.48;18.58;;;6.10;99.90;;;;;;5051394;28;20182;-69
2023/01/18 10:36:32;;;;;;;27.80;19.75;;;6.20;99.90;;;;;;5052185;28;20560;-69
2023/01/18 10:39:03;;;;;;;22.95;19.17;;;6.20;99.90;;;;;;5051544;28;20270;-69
2023/01/18 10:41:36;;;;;;;26.65;20.08;;;6.20;99.90;;;;;;5034344;28;20238;-69
2023/01/18 10:44:02;;;;;;;27.30;20.13;;;6.20;99.90;;;;;;5052884;28;20193;-69
2023/01/18 10:46:27;;;;;;;25.13;20.90;;;6.10;99.90;;;;;;5052154;28;20171;-71
2023/01/18 10:48:56;;;;;;;24.63;19.07;;;6.20;99.90;;;;;;5052047;28;20186;-69
2023/01/18 10:51:33;;;;;;;28.02;21.55;;;6.20;99.90;;;;;;5052876;28;20385;-69
2023/01/18 10:54:21;;;;;;;24.58;18.75;;;6.20;99.90;;;;;;5053039;28;20223;-69
2023/01/18 10:56:48;;;;;;;26.08;18.75;;;6.20;99.90;;;;;;5052322;28;20415;-69
2023/01/18 10:59:28;;;;;;;24.98;19.45;;;6.30;99.90;;;;;;5052907;28;20545;-69
2023/01/18 11:01:56;;;;;;;23.80;19.20;;;6.30;99.90;;;;;;5052930;28;20169;-69
2023/01/18 11:04:27;;;;;;;28.45;20.05;;;6.30;99.90;;;;;;5052706;28;20170;-69
2023/01/18 11:06:56;;;;;;;25.50;20.60;;;6.30;99.90;;;;;;5051858;28;20614;-69
2023/01/18 11:09:41;;;;;;;28.83;21.77;;;6.30;99.90;;;;;;5052814;28;20179;-69
2023/01/18 11:12:40;;;;;;;33.25;24.20;;;6.30;99.90;;;;;;5052634;28;20186;-69
2023/01/18 11:15:14;;;;;;;29.53;20.00;;;6.40;99.90;;;;;;5050113;28;20189;-69
2023/01/18 11:18:02;;;;;;;27.83;19.98;;;6.40;99.90;;;;;;5051674;28;20521;-69
2023/01/18 11:20:49;;;;;;;23.73;18.40;;;6.50;99.90;;;;;;5050854;28;20649;-69
2023/01/18 11:23:20;;;;;;;21.02;16.70;;;6.60;99.90;;;;;;5052504;28;20419;-69
2023/01/18 11:26:04;;;;;;;21.77;17.23;;;6.70;99.90;;;;;;5033798;28;20235;-69
2023/01/18 11:28:43;;;;;;;19.17;16.67;;;6.80;99.90;;;;;;5051727;28;20381;-74
2023/01/18 11:31:20;;;;;;;22.13;17.30;;;6.90;99.90;;;;;;5034776;28;20731;-69
2023/01/18 11:34:02;;;;;;;20.30;15.80;;;7.10;99.90;;;;;;5051839;28;20403;-69
2023/01/18 11:36:35;;;;;;;20.70;17.23;;;7.10;99.70;;;;;;5032592;28;20485;-69
2023/01/18 11:39:20;;;;;;;19.33;15.87;;;7.20;99.30;;;;;;5032408;28;20464;-69
2023/01/18 11:41:47;;;;;;;20.57;17.60;;;7.30;99.80;;;;;;5031943;28;20454;-69
2023/01/18 11:44:25;;;;;;;19.50;17.40;;;7.40;99.70;;;;;;5032399;28;20395;-69
2023/01/18 11:46:56;;;;;;;20.67;16.70;;;7.40;98.70;;;;;;5031546;28;20397;-69
2023/01/18 11:49:31;;;;;;;19.10;16.33;;;7.50;98.50;;;;;;5032320;28;20410;-69
2023/01/18 11:52:02;;;;;;;21.30;16.57;;;7.60;98.80;;;;;;5032173;28;20464;-69
2023/01/18 11:54:37;;;;;;;17.40;15.40;;;7.80;98.10;;;;;;5030947;28;20391;-70
2023/01/18 11:57:05;;;;;;;17.83;15.93;;;7.80;97.40;;;;;;5032750;28;20429;-69
2023/01/18 11:59:35;;;;;;;16.60;14.50;;;8.00;98.40;;;;;;5031898;28;20475;-77
2023/01/18 12:02:22;;;;;;;16.53;14.40;;;8.10;98.10;;;;;;5032761;28;20432;-69
2023/01/18 12:05:15;;;;;;;17.40;14.73;;;8.40;97.40;;;;;;5048871;28;20428;-69
2023/01/18 12:07:52;;;;;;;14.30;12.83;;;8.60;96.30;;;;;;5050481;28;20404;-69
2023/01/18 12:10:23;;;;;;;14.53;11.70;;;8.70;94.80;;;;;;5050044;28;20845;-69
2023/01/18 12:13:22;;;;;;;13.50;11.87;;;8.90;93.40;;;;;;5051411;28;20392;-69
2023/01/18 12:16:11;;;;;;;14.93;11.30;;;9.20;92.30;;;;;;5050622;28;20756;-70
2023/01/18 12:19:18;;;;;;;12.97;11.30;;;9.30;92.40;;;;;;5050944;28;20868;-69
2023/01/18 12:22:14;;;;;;;13.93;12.30;;;9.40;91.70;;;;;;5032758;28;20476;-68
2023/01/18 12:25:17;;;;;;;16.80;12.80;;;9.50;91.00;;;;;;5055104;28;20420;-69
2023/01/18 12:28:03;;;;;;;14.90;11.67;;;9.50;90.90;;;;;;5055080;28;20403;-69
2023/01/18 12:30:34;;;;;;;14.10;12.50;;;9.50;90.50;;;;;;5054429;28;20424;-68
2023/01/18 12:33:38;;;;;;;13.33;11.77;;;9.50;90.80;;;;;;5055809;28;20404;-69
2023/01/18 12:36:10;;;;;;;12.63;11.20;;;9.60;89.70;;;;;;5055799;28;20389;-69
2023/01/18 12:38:48;;;;;;;13.63;11.90;;;9.60;90.10;;;;;;5054877;28;20499;-69
2023/01/18 12:41:36;;;;;;;14.20;12.70;;;9.70;89.00;;;;;;5053216;28;20471;-69
2023/01/18 12:44:21;;;;;;;14.20;11.97;;;9.70;88.80;;;;;;5054230;28;20443;-69
2023/01/18 12:47:10;;;;;;;11.90;10.50;;;9.70;87.10;;;;;;5054569;28;20758;-69
2023/01/18 12:49:42;;;;;;;14.30;10.97;;;9.70;86.60;;;;;;5050776;28;20786;-69
2023/01/18 12:52:13;;;;;;;12.43;11.23;;;9.70;86.50;;;;;;5055347;28;20408;-69
2023/01/18 12:54:49;;;;;;;12.73;11.43;;;9.70;85.70;;;;;;5054298;28;20900;-69
2023/01/18 12:57:16;;;;;;;11.97;10.70;;;9.50;85.90;;;;;;5055155;28;20834;-69
2023/01/18 12:59:49;;;;;;;11.60;10.50;;;9.50;87.00;;;;;;5054575;28;20501;-69
2023/01/18 13:02:32;;;;;;;13.43;12.23;;;9.50;87.00;;;;;;5054881;28;20903;-68
2023/01/18 13:05:01;;;;;;;12.50;11.30;;;9.50;85.20;;;;;;5054614;28;20901;-68
2023/01/18 13:07:44;;;;;;;12.27;10.60;;;9.50;84.90;;;;;;5053483;28;20423;-69
2023/01/18 13:10:20;;;;;;;13.07;11.93;;;9.40;86.40;;;;;;5052559;28;20520;-69
2023/01/18 13:12:48;;;;;;;12.70;10.57;;;9.40;87.10;;;;;;5053477;28;20479;-68
2023/01/18 13:15:39;;;;;;;11.00;9.87;;;9.40;86.90;;;;;;5054090;28;20913;-68
2023/01/18 13:18:25;;;;;;;11.77;10.57;;;9.40;86.80;;;;;;5054806;28;20420;-69
2023/01/18 13:20:56;;;;;;;9.90;9.00;;;9.20;85.90;;;;;;5054068;28;20440;-68
2023/01/18 13:24:06;;;;;;;12.57;11.23;;;9.10;86.10;;;;;;5054889;28;20428;-68
2023/01/18 13:26:34;;;;;;;11.07;9.60;;;9.00;87.90;;;;;;5053368;28;20397;-69
2023/01/18 13:29:21;;;;;;;12.57;10.90;;;9.00;88.20;;;;;;5053588;28;20416;-69
2023/01/18 13:31:47;;;;;;;13.10;9.80;;;9.10;87.40;;;;;;5051867;28;20412;-69